Aéroport Paris-Orly, France

08:38 CET le 26 octobre 2014 (GMT +0100)
Yerres - FRANCE | Change Station
CLOSE
Current Station
Stations météorologiques personnelles
Location: Yerres, �LE-DE-FRANCE
Altitude: 118 ft
Stations météo à proximité

Alt. 118 ft 48.71 °N, 2.48 °E | Updated 3 seconds ago

Mostly Cloudy
Nuageux
55.2 ° F
Paraît 55.2 ° F
N
0.0
Vent Variable Vent de Est
Gusts 0.0 mph

Aujourd'hui
Haut(e) -- | Bas -- ° F
--% Risque de précip.
Hier
Haut(e) -- | Bas -- ° F
Precip. -- pouce
7:27 AM 5:40 PM
Lune montante, 6% visible
Pression 30.27 pouce
Visibilité 1.6 Miles terrestres
Nuages Nuageux 300 ft
Point de rosée 54 ° F
Humidité 97%
Précipitations 0.00 pouce
Profondeur de la couche neigeuse Non disponible.
UV 0 sur 12
Pollen Non disponible.
Qualité de l'air Non disponible.
Flu Activity Non disponible.
METAR LFPO 260730Z 00000KT 2500 BR BKN003 12/12 Q1025 TEMPO 1200 BCFG BKN002

More Conditions Fewer Conditions

Pression 30.27 pouce
Visibilité 1.6 Miles terrestres
Nuages Nuageux 300 ft
Point de rosée 54 ° F
Humidité 97%
Précipitations 0.00 pouce
Profondeur de la couche neigeuse Non disponible.
UV 0 sur 12
Pollen Non disponible.
Qualité de l'air Non disponible.
Flu Activity Non disponible.
METAR LFPO 260730Z 00000KT 2500 BR BKN003 12/12 Q1025 TEMPO 1200 BCFG BKN002

More Conditions Fewer Conditions

10-Day Weather Forecast

Almanac

Astronomie

Oct. 26, 2014 Lever Coucher
Temps réel 07:27 CET 17:40 CET
Crépuscule civil 06:54 CET 18:13 CET
Crépuscule nautique 06:17 CET 18:50 CET
Crépuscule astronomique 05:41 CET 19:26 CET
Lune 09:58 CET 19:30 CET
Durée de lumière visible 11h 18m
Longueur du jour
10h 13m
Tomorrow will be 3m 19s shorter.
Lune montante, 6% of the Moon is Illuminated
Aujourd'hui
Lune montante
Oct 30
Premier quartier
Nov 6
Pleine lune
Nov 14
Dernier quartier
Nov 22
Nouveau

Les extrêmes de température d’hier

Country Highs Country Lows

Community

WunderPhotos

Upload Photos

1,765,115 Photos téléchargées !

Nearby

Qualité de l'air

Not available.

Épaisseur de neige

Not available.

Activité sismique

Ville Distance Mag. Time & Date
No recent earthquake activity has been reported nearby.
Minimum magnitude displayed is 2.5.

Températures des eaux côtières

Lieu Température
Aucun rapport de station

Stations météo à proximité